Terminal Aerodrome Forecast
Issued by NWS Omaha/Valley, NE

Home | Current Version | Previous Version | Text Only | Print | Product List | Glossary On
Versions: 1 2 3 4 5 6 7 8 9 10 11 12 13 14 15 16 17 18 19
000
FTUS43 KOAX 270733 AAC
TAFOMA
TAF AMD
KOMA 270733Z 2708/2806 35005KT 1/4SM FG VV002
      TEMPO 2708/2709 1/2SM FG BKN003
     FM270900 01004KT 1SM BR BKN015
     FM271200 36006KT 5SM BR SCT120
     FM271500 02010KT P6SM SCT030=

USA.gov is the U.S. government's official web portal to all federal, state and local government web resources and services.